sensor_id;sensor_type;location;lat;lon;timestamp;temperature;humidity
17182;DHT22;8706;48.254;16.422;2024-03-08T00:00:59;18.70;61.70
17182;DHT22;8706;48.254;16.422;2024-03-08T00:03:26;18.70;61.60
17182;DHT22;8706;48.254;16.422;2024-03-08T00:05:54;18.70;61.60
17182;DHT22;8706;48.254;16.422;2024-03-08T00:08:21;18.70;61.60
17182;DHT22;8706;48.254;16.422;2024-03-08T00:10:49;18.70;61.60
17182;DHT22;8706;48.254;16.422;2024-03-08T00:13:16;18.70;61.50
17182;DHT22;8706;48.254;16.422;2024-03-08T00:15:43;18.70;61.50
17182;DHT22;8706;48.254;16.422;2024-03-08T00:18:10;18.70;61.50
17182;DHT22;8706;48.254;16.422;2024-03-08T00:20:37;18.60;61.50
17182;DHT22;8706;48.254;16.422;2024-03-08T00:23:04;18.60;61.50
17182;DHT22;8706;48.254;16.422;2024-03-08T00:25:31;18.60;61.50
17182;DHT22;8706;48.254;16.422;2024-03-08T00:27:59;18.60;61.50
17182;DHT22;8706;48.254;16.422;2024-03-08T00:30:26;18.60;61.60
17182;DHT22;8706;48.254;16.422;2024-03-08T00:32:53;18.70;61.50
17182;DHT22;8706;48.254;16.422;2024-03-08T00:35:19;18.70;61.50
17182;DHT22;8706;48.254;16.422;2024-03-08T00:37:46;18.60;61.50
17182;DHT22;8706;48.254;16.422;2024-03-08T00:40:13;18.60;61.50
17182;DHT22;8706;48.254;16.422;2024-03-08T00:42:40;18.60;61.60
17182;DHT22;8706;48.254;16.422;2024-03-08T00:45:11;18.60;61.50
17182;DHT22;8706;48.254;16.422;2024-03-08T00:47:38;18.70;61.50
17182;DHT22;8706;48.254;16.422;2024-03-08T00:50:05;18.70;61.40
17182;DHT22;8706;48.254;16.422;2024-03-08T00:52:33;18.70;61.40
17182;DHT22;8706;48.254;16.422;2024-03-08T00:55:00;18.60;61.50
17182;DHT22;8706;48.254;16.422;2024-03-08T00:57:27;18.70;61.50
17182;DHT22;8706;48.254;16.422;2024-03-08T00:59:54;18.60;61.50
17182;DHT22;8706;48.254;16.422;2024-03-08T01:02:23;18.70;61.50
17182;DHT22;8706;48.254;16.422;2024-03-08T01:04:50;18.70;61.40
17182;DHT22;8706;48.254;16.422;2024-03-08T01:07:17;18.70;61.30
17182;DHT22;8706;48.254;16.422;2024-03-08T01:09:44;18.60;61.40
17182;DHT22;8706;48.254;16.422;2024-03-08T01:12:11;18.60;61.40
17182;DHT22;8706;48.254;16.422;2024-03-08T01:14:38;18.60;61.40
17182;DHT22;8706;48.254;16.422;2024-03-08T01:17:05;18.70;61.40
17182;DHT22;8706;48.254;16.422;2024-03-08T01:19:33;18.60;61.40
17182;DHT22;8706;48.254;16.422;2024-03-08T01:22:00;18.60;61.40
17182;DHT22;8706;48.254;16.422;2024-03-08T01:24:27;18.60;61.40
17182;DHT22;8706;48.254;16.422;2024-03-08T01:26:54;18.60;61.40
17182;DHT22;8706;48.254;16.422;2024-03-08T01:29:21;18.60;61.50
17182;DHT22;8706;48.254;16.422;2024-03-08T01:31:48;18.60;61.40
17182;DHT22;8706;48.254;16.422;2024-03-08T01:34:15;18.60;61.40
17182;DHT22;8706;48.254;16.422;2024-03-08T01:36:43;18.60;61.30
17182;DHT22;8706;48.254;16.422;2024-03-08T01:39:10;18.60;61.30
17182;DHT22;8706;48.254;16.422;2024-03-08T01:41:37;18.60;62.00
17182;DHT22;8706;48.254;16.422;2024-03-08T01:44:05;18.60;61.30
17182;DHT22;8706;48.254;16.422;2024-03-08T01:46:33;18.60;61.50
17182;DHT22;8706;48.254;16.422;2024-03-08T01:49:01;18.60;61.50
17182;DHT22;8706;48.254;16.422;2024-03-08T01:51:29;18.60;61.50
17182;DHT22;8706;48.254;16.422;2024-03-08T01:53:58;18.60;61.50
17182;DHT22;8706;48.254;16.422;2024-03-08T01:56:27;18.60;61.40
17182;DHT22;8706;48.254;16.422;2024-03-08T01:58:54;18.60;61.50
17182;DHT22;8706;48.254;16.422;2024-03-08T02:01:21;18.60;61.50
17182;DHT22;8706;48.254;16.422;2024-03-08T02:03:49;18.60;61.40
17182;DHT22;8706;48.254;16.422;2024-03-08T02:06:16;18.60;61.40
17182;DHT22;8706;48.254;16.422;2024-03-08T02:08:43;18.60;61.40
17182;DHT22;8706;48.254;16.422;2024-03-08T02:11:12;18.60;61.40
17182;DHT22;8706;48.254;16.422;2024-03-08T02:13:39;18.60;61.30
17182;DHT22;8706;48.254;16.422;2024-03-08T02:16:07;18.60;61.50
17182;DHT22;8706;48.254;16.422;2024-03-08T02:18:34;18.50;61.40
17182;DHT22;8706;48.254;16.422;2024-03-08T02:21:04;18.60;61.50
17182;DHT22;8706;48.254;16.422;2024-03-08T02:23:32;18.60;61.50
17182;DHT22;8706;48.254;16.422;2024-03-08T02:25:59;18.60;61.40
17182;DHT22;8706;48.254;16.422;2024-03-08T02:28:26;18.50;61.40
17182;DHT22;8706;48.254;16.422;2024-03-08T02:30:53;18.50;61.40
17182;DHT22;8706;48.254;16.422;2024-03-08T02:33:22;18.60;61.40
17182;DHT22;8706;48.254;16.422;2024-03-08T02:35:49;18.60;61.50
17182;DHT22;8706;48.254;16.422;2024-03-08T02:38:19;18.60;61.30
17182;DHT22;8706;48.254;16.422;2024-03-08T02:40:48;18.50;61.40
17182;DHT22;8706;48.254;16.422;2024-03-08T02:43:17;18.50;61.40
17182;DHT22;8706;48.254;16.422;2024-03-08T02:45:44;18.50;61.40
17182;DHT22;8706;48.254;16.422;2024-03-08T02:48:12;18.50;61.40
17182;DHT22;8706;48.254;16.422;2024-03-08T02:50:39;18.50;61.40
17182;DHT22;8706;48.254;16.422;2024-03-08T02:53:08;18.60;61.30
17182;DHT22;8706;48.254;16.422;2024-03-08T02:55:36;18.50;61.40
17182;DHT22;8706;48.254;16.422;2024-03-08T02:58:04;18.60;61.40
17182;DHT22;8706;48.254;16.422;2024-03-08T03:00:34;18.50;61.40
17182;DHT22;8706;48.254;16.422;2024-03-08T03:03:01;18.50;61.40
17182;DHT22;8706;48.254;16.422;2024-03-08T03:05:29;18.50;61.40
17182;DHT22;8706;48.254;16.422;2024-03-08T03:07:56;18.50;62.00
17182;DHT22;8706;48.254;16.422;2024-03-08T03:10:24;18.50;61.40
17182;DHT22;8706;48.254;16.422;2024-03-08T03:12:52;18.50;61.40
17182;DHT22;8706;48.254;16.422;2024-03-08T03:15:19;18.50;61.50
17182;DHT22;8706;48.254;16.422;2024-03-08T03:17:47;18.50;61.40
17182;DHT22;8706;48.254;16.422;2024-03-08T03:20:14;18.50;61.40
17182;DHT22;8706;48.254;16.422;2024-03-08T03:22:48;18.50;61.40
17182;DHT22;8706;48.254;16.422;2024-03-08T03:25:17;18.50;61.40
17182;DHT22;8706;48.254;16.422;2024-03-08T03:27:49;18.50;61.40
17182;DHT22;8706;48.254;16.422;2024-03-08T03:30:17;18.50;61.50
17182;DHT22;8706;48.254;16.422;2024-03-08T03:32:47;18.50;61.40
17182;DHT22;8706;48.254;16.422;2024-03-08T03:35:15;18.50;61.30
17182;DHT22;8706;48.254;16.422;2024-03-08T03:37:42;18.50;61.40
17182;DHT22;8706;48.254;16.422;2024-03-08T03:40:12;18.50;61.40
17182;DHT22;8706;48.254;16.422;2024-03-08T03:42:39;18.50;61.30
17182;DHT22;8706;48.254;16.422;2024-03-08T03:45:07;18.50;61.20
17182;DHT22;8706;48.254;16.422;2024-03-08T03:47:36;18.50;61.40
17182;DHT22;8706;48.254;16.422;2024-03-08T03:50:05;18.50;61.40
17182;DHT22;8706;48.254;16.422;2024-03-08T03:52:32;18.50;61.30
17182;DHT22;8706;48.254;16.422;2024-03-08T03:54:59;18.50;61.30
17182;DHT22;8706;48.254;16.422;2024-03-08T03:57:26;18.50;61.30
17182;DHT22;8706;48.254;16.422;2024-03-08T03:59:53;18.50;61.20
17182;DHT22;8706;48.254;16.422;2024-03-08T04:02:20;18.50;61.20
17182;DHT22;8706;48.254;16.422;2024-03-08T04:04:48;18.50;61.20
17182;DHT22;8706;48.254;16.422;2024-03-08T04:07:15;18.50;61.30
17182;DHT22;8706;48.254;16.422;2024-03-08T04:09:42;18.50;61.20
17182;DHT22;8706;48.254;16.422;2024-03-08T04:12:09;18.50;61.20
17182;DHT22;8706;48.254;16.422;2024-03-08T04:14:36;18.50;61.30
17182;DHT22;8706;48.254;16.422;2024-03-08T04:17:03;18.50;61.20
17182;DHT22;8706;48.254;16.422;2024-03-08T04:19:31;18.50;61.30
17182;DHT22;8706;48.254;16.422;2024-03-08T04:22:01;18.50;61.20
17182;DHT22;8706;48.254;16.422;2024-03-08T04:24:28;18.50;61.30
17182;DHT22;8706;48.254;16.422;2024-03-08T04:26:56;18.50;61.30
17182;DHT22;8706;48.254;16.422;2024-03-08T04:29:23;18.50;61.20
17182;DHT22;8706;48.254;16.422;2024-03-08T04:31:50;18.40;61.30
17182;DHT22;8706;48.254;16.422;2024-03-08T04:34:19;18.50;61.20
17182;DHT22;8706;48.254;16.422;2024-03-08T04:36:46;18.50;61.20
17182;DHT22;8706;48.254;16.422;2024-03-08T04:39:15;18.50;61.20
17182;DHT22;8706;48.254;16.422;2024-03-08T04:41:44;18.50;61.20
17182;DHT22;8706;48.254;16.422;2024-03-08T04:44:11;18.50;61.20
17182;DHT22;8706;48.254;16.422;2024-03-08T04:46:39;18.50;61.10
17182;DHT22;8706;48.254;16.422;2024-03-08T04:49:06;18.50;61.20
17182;DHT22;8706;48.254;16.422;2024-03-08T04:51:34;18.50;61.10
17182;DHT22;8706;48.254;16.422;2024-03-08T04:54:01;18.50;61.10
17182;DHT22;8706;48.254;16.422;2024-03-08T04:56:29;18.50;61.10
17182;DHT22;8706;48.254;16.422;2024-03-08T04:58:56;18.50;61.20
17182;DHT22;8706;48.254;16.422;2024-03-08T05:01:23;18.50;61.10
17182;DHT22;8706;48.254;16.422;2024-03-08T05:03:50;18.60;61.10
17182;DHT22;8706;48.254;16.422;2024-03-08T05:06:19;18.50;61.00
17182;DHT22;8706;48.254;16.422;2024-03-08T05:08:46;18.50;61.00
17182;DHT22;8706;48.254;16.422;2024-03-08T05:11:13;18.50;61.00
17182;DHT22;8706;48.254;16.422;2024-03-08T05:13:42;18.50;61.10
17182;DHT22;8706;48.254;16.422;2024-03-08T05:16:09;18.50;61.10
17182;DHT22;8706;48.254;16.422;2024-03-08T05:18:36;18.50;61.10
17182;DHT22;8706;48.254;16.422;2024-03-08T05:21:03;18.40;61.10
17182;DHT22;8706;48.254;16.422;2024-03-08T05:23:29;18.50;61.00
17182;DHT22;8706;48.254;16.422;2024-03-08T05:25:56;18.40;61.00
17182;DHT22;8706;48.254;16.422;2024-03-08T05:28:23;18.50;61.00
17182;DHT22;8706;48.254;16.422;2024-03-08T05:30:51;18.50;61.00
17182;DHT22;8706;48.254;16.422;2024-03-08T05:33:18;18.40;61.10
17182;DHT22;8706;48.254;16.422;2024-03-08T05:35:45;18.50;61.10
17182;DHT22;8706;48.254;16.422;2024-03-08T05:38:12;18.40;61.10
17182;DHT22;8706;48.254;16.422;2024-03-08T05:40:39;18.50;61.00
17182;DHT22;8706;48.254;16.422;2024-03-08T05:43:08;18.50;61.00
17182;DHT22;8706;48.254;16.422;2024-03-08T05:45:37;18.50;61.00
17182;DHT22;8706;48.254;16.422;2024-03-08T05:48:06;18.50;61.00
17182;DHT22;8706;48.254;16.422;2024-03-08T05:50:33;18.50;61.00
17182;DHT22;8706;48.254;16.422;2024-03-08T05:53:00;18.50;60.90
17182;DHT22;8706;48.254;16.422;2024-03-08T05:55:27;18.50;60.90
17182;DHT22;8706;48.254;16.422;2024-03-08T05:57:55;18.50;61.00
17182;DHT22;8706;48.254;16.422;2024-03-08T06:00:22;18.50;60.90
17182;DHT22;8706;48.254;16.422;2024-03-08T06:02:49;18.50;60.80
17182;DHT22;8706;48.254;16.422;2024-03-08T06:05:19;18.50;60.80
17182;DHT22;8706;48.254;16.422;2024-03-08T06:07:45;18.50;60.90
17182;DHT22;8706;48.254;16.422;2024-03-08T06:10:13;18.50;60.90
17182;DHT22;8706;48.254;16.422;2024-03-08T06:12:40;18.50;60.90
17182;DHT22;8706;48.254;16.422;2024-03-08T06:15:07;18.50;60.80
17182;DHT22;8706;48.254;16.422;2024-03-08T06:17:35;18.50;60.80
17182;DHT22;8706;48.254;16.422;2024-03-08T06:20:02;18.50;60.90
17182;DHT22;8706;48.254;16.422;2024-03-08T06:22:37;18.50;60.90
17182;DHT22;8706;48.254;16.422;2024-03-08T06:25:07;18.50;60.90
17182;DHT22;8706;48.254;16.422;2024-03-08T06:27:33;18.50;60.80
17182;DHT22;8706;48.254;16.422;2024-03-08T06:30:00;18.50;60.70
17182;DHT22;8706;48.254;16.422;2024-03-08T06:32:27;18.50;60.60
17182;DHT22;8706;48.254;16.422;2024-03-08T06:34:54;18.50;60.80
17182;DHT22;8706;48.254;16.422;2024-03-08T06:37:20;18.50;60.70
17182;DHT22;8706;48.254;16.422;2024-03-08T06:39:50;18.50;60.90
17182;DHT22;8706;48.254;16.422;2024-03-08T06:42:19;18.50;60.70
17182;DHT22;8706;48.254;16.422;2024-03-08T06:44:46;18.70;61.00
17182;DHT22;8706;48.254;16.422;2024-03-08T06:47:15;18.70;60.90
17182;DHT22;8706;48.254;16.422;2024-03-08T06:49:42;18.70;60.70
17182;DHT22;8706;48.254;16.422;2024-03-08T06:52:09;18.70;61.00
17182;DHT22;8706;48.254;16.422;2024-03-08T06:54:36;18.70;61.20
17182;DHT22;8706;48.254;16.422;2024-03-08T06:57:05;18.70;61.20
17182;DHT22;8706;48.254;16.422;2024-03-08T06:59:32;18.80;61.30
17182;DHT22;8706;48.254;16.422;2024-03-08T07:02:01;18.80;61.10
17182;DHT22;8706;48.254;16.422;2024-03-08T07:04:28;18.80;61.90
17182;DHT22;8706;48.254;16.422;2024-03-08T07:06:55;18.90;61.20
17182;DHT22;8706;48.254;16.422;2024-03-08T07:09:23;18.90;61.10
17182;DHT22;8706;48.254;16.422;2024-03-08T07:11:50;19.00;61.20
17182;DHT22;8706;48.254;16.422;2024-03-08T07:14:21;19.00;61.20
17182;DHT22;8706;48.254;16.422;2024-03-08T07:16:48;19.00;61.20
17182;DHT22;8706;48.254;16.422;2024-03-08T07:19:15;19.00;61.20
17182;DHT22;8706;48.254;16.422;2024-03-08T07:21:42;19.00;61.20
17182;DHT22;8706;48.254;16.422;2024-03-08T07:24:09;19.10;61.30
17182;DHT22;8706;48.254;16.422;2024-03-08T07:26:53;19.00;61.30
17182;DHT22;8706;48.254;16.422;2024-03-08T07:29:22;19.00;61.30
17182;DHT22;8706;48.254;16.422;2024-03-08T07:31:49;19.00;61.20
17182;DHT22;8706;48.254;16.422;2024-03-08T07:34:21;19.00;61.30
17182;DHT22;8706;48.254;16.422;2024-03-08T07:36:48;19.10;61.40
17182;DHT22;8706;48.254;16.422;2024-03-08T07:39:16;19.00;61.40
17182;DHT22;8706;48.254;16.422;2024-03-08T07:41:44;19.10;61.50
17182;DHT22;8706;48.254;16.422;2024-03-08T07:44:11;19.10;61.50
17182;DHT22;8706;48.254;16.422;2024-03-08T07:46:41;19.10;61.60
17182;DHT22;8706;48.254;16.422;2024-03-08T07:49:08;19.00;61.60
17182;DHT22;8706;48.254;16.422;2024-03-08T07:51:36;19.10;61.50
17182;DHT22;8706;48.254;16.422;2024-03-08T07:54:03;19.10;61.60
17182;DHT22;8706;48.254;16.422;2024-03-08T07:56:30;19.10;61.60
17182;DHT22;8706;48.254;16.422;2024-03-08T07:58:57;19.10;61.50
17182;DHT22;8706;48.254;16.422;2024-03-08T08:01:24;19.20;61.60
17182;DHT22;8706;48.254;16.422;2024-03-08T08:03:52;19.20;61.60
17182;DHT22;8706;48.254;16.422;2024-03-08T08:06:19;19.10;61.50
17182;DHT22;8706;48.254;16.422;2024-03-08T08:08:46;19.20;61.60
17182;DHT22;8706;48.254;16.422;2024-03-08T08:11:13;19.20;61.60
17182;DHT22;8706;48.254;16.422;2024-03-08T08:13:41;19.20;61.60
17182;DHT22;8706;48.254;16.422;2024-03-08T08:16:09;19.20;61.40
17182;DHT22;8706;48.254;16.422;2024-03-08T08:18:36;19.20;61.60
17182;DHT22;8706;48.254;16.422;2024-03-08T08:21:05;19.20;61.70
17182;DHT22;8706;48.254;16.422;2024-03-08T08:23:31;19.20;61.70
17182;DHT22;8706;48.254;16.422;2024-03-08T08:25:58;19.20;61.70
17182;DHT22;8706;48.254;16.422;2024-03-08T08:28:27;19.20;61.70
17182;DHT22;8706;48.254;16.422;2024-03-08T08:30:54;19.20;61.60
17182;DHT22;8706;48.254;16.422;2024-03-08T08:33:20;19.20;61.80
17182;DHT22;8706;48.254;16.422;2024-03-08T08:35:47;19.20;61.80
17182;DHT22;8706;48.254;16.422;2024-03-08T08:38:18;19.20;61.80
17182;DHT22;8706;48.254;16.422;2024-03-08T08:40:45;19.20;61.90
17182;DHT22;8706;48.254;16.422;2024-03-08T08:43:12;19.20;62.00
17182;DHT22;8706;48.254;16.422;2024-03-08T08:45:39;19.20;61.90
17182;DHT22;8706;48.254;16.422;2024-03-08T08:48:08;19.20;61.90
17182;DHT22;8706;48.254;16.422;2024-03-08T08:50:36;19.20;61.90
17182;DHT22;8706;48.254;16.422;2024-03-08T08:53:03;19.20;61.90
17182;DHT22;8706;48.254;16.422;2024-03-08T08:55:33;19.20;62.10
17182;DHT22;8706;48.254;16.422;2024-03-08T08:58:01;19.10;62.10
17182;DHT22;8706;48.254;16.422;2024-03-08T09:00:29;19.20;62.10
17182;DHT22;8706;48.254;16.422;2024-03-08T09:02:57;19.20;62.20
17182;DHT22;8706;48.254;16.422;2024-03-08T09:05:24;19.20;62.20
17182;DHT22;8706;48.254;16.422;2024-03-08T09:07:51;19.20;62.20
17182;DHT22;8706;48.254;16.422;2024-03-08T09:10:19;19.10;62.20
17182;DHT22;8706;48.254;16.422;2024-03-08T09:12:48;19.10;62.20
17182;DHT22;8706;48.254;16.422;2024-03-08T09:15:15;19.20;62.20
17182;DHT22;8706;48.254;16.422;2024-03-08T09:17:43;19.20;62.20
17182;DHT22;8706;48.254;16.422;2024-03-08T09:20:11;19.10;62.10
17182;DHT22;8706;48.254;16.422;2024-03-08T09:22:40;19.20;62.00
17182;DHT22;8706;48.254;16.422;2024-03-08T09:25:07;19.10;61.90
17182;DHT22;8706;48.254;16.422;2024-03-08T09:27:35;19.20;62.10
17182;DHT22;8706;48.254;16.422;2024-03-08T09:30:04;19.10;62.00
17182;DHT22;8706;48.254;16.422;2024-03-08T09:32:33;19.20;62.00
17182;DHT22;8706;48.254;16.422;2024-03-08T09:35:00;19.10;61.90
17182;DHT22;8706;48.254;16.422;2024-03-08T09:37:27;19.10;61.90
17182;DHT22;8706;48.254;16.422;2024-03-08T09:39:53;19.20;61.90
17182;DHT22;8706;48.254;16.422;2024-03-08T09:42:20;19.20;62.50
17182;DHT22;8706;48.254;16.422;2024-03-08T09:44:47;19.20;61.80
17182;DHT22;8706;48.254;16.422;2024-03-08T09:47:15;19.20;61.70
17182;DHT22;8706;48.254;16.422;2024-03-08T09:49:44;19.20;61.60
17182;DHT22;8706;48.254;16.422;2024-03-08T09:52:11;19.30;62.20
17182;DHT22;8706;48.254;16.422;2024-03-08T09:54:38;19.30;61.40
17182;DHT22;8706;48.254;16.422;2024-03-08T09:57:08;19.40;61.40
17182;DHT22;8706;48.254;16.422;2024-03-08T09:59:35;19.40;61.30
17182;DHT22;8706;48.254;16.422;2024-03-08T10:02:15;19.40;61.30
17182;DHT22;8706;48.254;16.422;2024-03-08T10:04:43;19.50;60.90
17182;DHT22;8706;48.254;16.422;2024-03-08T10:07:12;19.50;60.80
17182;DHT22;8706;48.254;16.422;2024-03-08T10:09:39;19.60;60.80
17182;DHT22;8706;48.254;16.422;2024-03-08T10:12:07;19.60;60.70
17182;DHT22;8706;48.254;16.422;2024-03-08T10:14:39;19.70;60.50
17182;DHT22;8706;48.254;16.422;2024-03-08T10:17:06;19.70;60.60
17182;DHT22;8706;48.254;16.422;2024-03-08T10:19:35;19.60;60.60
17182;DHT22;8706;48.254;16.422;2024-03-08T10:22:02;19.70;60.70
17182;DHT22;8706;48.254;16.422;2024-03-08T10:24:30;19.70;60.60
17182;DHT22;8706;48.254;16.422;2024-03-08T10:26:59;19.80;60.40
17182;DHT22;8706;48.254;16.422;2024-03-08T10:29:27;19.90;60.20
17182;DHT22;8706;48.254;16.422;2024-03-08T10:31:54;20.00;59.90
17182;DHT22;8706;48.254;16.422;2024-03-08T10:34:23;20.10;60.00
17182;DHT22;8706;48.254;16.422;2024-03-08T10:36:52;20.10;59.80
17182;DHT22;8706;48.254;16.422;2024-03-08T10:39:23;20.10;59.80
17182;DHT22;8706;48.254;16.422;2024-03-08T10:41:53;20.20;59.60
17182;DHT22;8706;48.254;16.422;2024-03-08T10:44:32;20.10;59.70
17182;DHT22;8706;48.254;16.422;2024-03-08T10:47:15;20.10;59.80
17182;DHT22;8706;48.254;16.422;2024-03-08T10:49:51;20.10;59.80
17182;DHT22;8706;48.254;16.422;2024-03-08T10:52:22;20.10;59.80
17182;DHT22;8706;48.254;16.422;2024-03-08T10:54:49;20.10;59.90
17182;DHT22;8706;48.254;16.422;2024-03-08T10:57:18;20.10;59.80
17182;DHT22;8706;48.254;16.422;2024-03-08T10:59:47;20.10;59.70
17182;DHT22;8706;48.254;16.422;2024-03-08T11:02:16;20.10;59.80
17182;DHT22;8706;48.254;16.422;2024-03-08T11:04:47;20.00;59.80
17182;DHT22;8706;48.254;16.422;2024-03-08T11:07:15;20.00;59.90
17182;DHT22;8706;48.254;16.422;2024-03-08T11:09:47;20.00;59.90
17182;DHT22;8706;48.254;16.422;2024-03-08T11:12:22;20.00;59.80
17182;DHT22;8706;48.254;16.422;2024-03-08T11:14:52;19.90;59.90
17182;DHT22;8706;48.254;16.422;2024-03-08T11:17:40;19.90;60.00
17182;DHT22;8706;48.254;16.422;2024-03-08T11:20:10;19.80;60.10
17182;DHT22;8706;48.254;16.422;2024-03-08T11:22:41;19.80;60.20
17182;DHT22;8706;48.254;16.422;2024-03-08T11:25:31;19.70;60.40
17182;DHT22;8706;48.254;16.422;2024-03-08T11:28:13;19.70;60.50
17182;DHT22;8706;48.254;16.422;2024-03-08T11:30:47;19.70;60.50
17182;DHT22;8706;48.254;16.422;2024-03-08T11:33:17;19.60;60.60
17182;DHT22;8706;48.254;16.422;2024-03-08T11:35:44;19.60;60.60
17182;DHT22;8706;48.254;16.422;2024-03-08T11:38:12;19.60;60.60
17182;DHT22;8706;48.254;16.422;2024-03-08T11:40:41;19.70;60.60
17182;DHT22;8706;48.254;16.422;2024-03-08T11:43:08;19.70;60.50
17182;DHT22;8706;48.254;16.422;2024-03-08T11:45:36;19.80;60.30
17182;DHT22;8706;48.254;16.422;2024-03-08T11:48:04;19.80;60.10
17182;DHT22;8706;48.254;16.422;2024-03-08T11:50:31;19.80;60.20
17182;DHT22;8706;48.254;16.422;2024-03-08T11:53:03;19.80;60.30
17182;DHT22;8706;48.254;16.422;2024-03-08T11:55:31;19.80;60.30
17182;DHT22;8706;48.254;16.422;2024-03-08T11:58:03;19.90;60.20
17182;DHT22;8706;48.254;16.422;2024-03-08T12:00:31;20.90;58.90
17182;DHT22;8706;48.254;16.422;2024-03-08T12:03:04;22.50;56.60
17182;DHT22;8706;48.254;16.422;2024-03-08T12:05:31;24.00;53.50
17182;DHT22;8706;48.254;16.422;2024-03-08T12:08:00;22.80;55.00
17182;DHT22;8706;48.254;16.422;2024-03-08T12:10:27;22.00;56.20
17182;DHT22;8706;48.254;16.422;2024-03-08T12:12:55;21.50;57.10
17182;DHT22;8706;48.254;16.422;2024-03-08T12:15:27;21.20;57.50
17182;DHT22;8706;48.254;16.422;2024-03-08T12:17:55;21.00;58.60
17182;DHT22;8706;48.254;16.422;2024-03-08T12:20:24;20.90;58.30
17182;DHT22;8706;48.254;16.422;2024-03-08T12:22:52;20.70;58.80
17182;DHT22;8706;48.254;16.422;2024-03-08T12:25:25;20.60;59.30
17182;DHT22;8706;48.254;16.422;2024-03-08T12:27:52;20.60;59.50
17182;DHT22;8706;48.254;16.422;2024-03-08T12:30:23;20.60;59.50
17182;DHT22;8706;48.254;16.422;2024-03-08T12:32:55;20.60;60.10
17182;DHT22;8706;48.254;16.422;2024-03-08T12:35:24;20.70;59.60
17182;DHT22;8706;48.254;16.422;2024-03-08T12:37:52;20.60;59.70
17182;DHT22;8706;48.254;16.422;2024-03-08T12:40:25;20.70;59.70
17182;DHT22;8706;48.254;16.422;2024-03-08T12:42:54;20.70;59.60
17182;DHT22;8706;48.254;16.422;2024-03-08T12:45:21;20.80;59.60
17182;DHT22;8706;48.254;16.422;2024-03-08T12:47:50;20.80;59.60
17182;DHT22;8706;48.254;16.422;2024-03-08T12:50:18;20.70;59.70
17182;DHT22;8706;48.254;16.422;2024-03-08T12:52:45;20.70;59.80
17182;DHT22;8706;48.254;16.422;2024-03-08T12:55:12;20.60;59.80
17182;DHT22;8706;48.254;16.422;2024-03-08T12:57:39;20.60;60.00
17182;DHT22;8706;48.254;16.422;2024-03-08T13:00:07;20.50;60.20
17182;DHT22;8706;48.254;16.422;2024-03-08T13:02:39;20.40;60.30
17182;DHT22;8706;48.254;16.422;2024-03-08T13:05:08;20.30;60.40
17182;DHT22;8706;48.254;16.422;2024-03-08T13:07:37;20.30;60.60
17182;DHT22;8706;48.254;16.422;2024-03-08T13:10:05;20.20;60.50
17182;DHT22;8706;48.254;16.422;2024-03-08T13:12:32;20.20;60.70
17182;DHT22;8706;48.254;16.422;2024-03-08T13:15:03;20.20;60.70
17182;DHT22;8706;48.254;16.422;2024-03-08T13:17:31;20.20;60.80
17182;DHT22;8706;48.254;16.422;2024-03-08T13:19:58;20.10;60.90
17182;DHT22;8706;48.254;16.422;2024-03-08T13:22:25;20.10;61.10
17182;DHT22;8706;48.254;16.422;2024-03-08T13:24:55;20.10;61.20
17182;DHT22;8706;48.254;16.422;2024-03-08T13:27:22;20.10;61.20
17182;DHT22;8706;48.254;16.422;2024-03-08T13:29:49;20.10;61.20
17182;DHT22;8706;48.254;16.422;2024-03-08T13:32:16;20.10;61.30
17182;DHT22;8706;48.254;16.422;2024-03-08T13:34:46;20.10;61.40
17182;DHT22;8706;48.254;16.422;2024-03-08T13:37:14;20.10;61.40
17182;DHT22;8706;48.254;16.422;2024-03-08T13:39:41;20.10;61.50
17182;DHT22;8706;48.254;16.422;2024-03-08T13:42:11;20.00;61.50
17182;DHT22;8706;48.254;16.422;2024-03-08T13:44:43;20.10;61.40
17182;DHT22;8706;48.254;16.422;2024-03-08T13:47:11;20.20;61.30
17182;DHT22;8706;48.254;16.422;2024-03-08T13:49:39;20.40;60.90
17182;DHT22;8706;48.254;16.422;2024-03-08T13:52:06;20.60;60.40
17182;DHT22;8706;48.254;16.422;2024-03-08T13:54:34;20.80;60.10
17182;DHT22;8706;48.254;16.422;2024-03-08T13:57:01;20.90;60.00
17182;DHT22;8706;48.254;16.422;2024-03-08T13:59:30;20.90;60.00
17182;DHT22;8706;48.254;16.422;2024-03-08T14:01:59;20.80;60.00
17182;DHT22;8706;48.254;16.422;2024-03-08T14:04:27;20.80;60.00
17182;DHT22;8706;48.254;16.422;2024-03-08T14:06:54;20.80;60.10
17182;DHT22;8706;48.254;16.422;2024-03-08T14:09:24;20.80;60.10
17182;DHT22;8706;48.254;16.422;2024-03-08T14:11:52;20.70;60.10
17182;DHT22;8706;48.254;16.422;2024-03-08T14:14:20;20.60;60.30
17182;DHT22;8706;48.254;16.422;2024-03-08T14:16:50;20.50;60.50
17182;DHT22;8706;48.254;16.422;2024-03-08T14:19:19;20.50;60.60
17182;DHT22;8706;48.254;16.422;2024-03-08T14:21:46;20.50;60.70
17182;DHT22;8706;48.254;16.422;2024-03-08T14:24:14;20.60;60.50
17182;DHT22;8706;48.254;16.422;2024-03-08T14:26:41;20.60;60.60
17182;DHT22;8706;48.254;16.422;2024-03-08T14:29:08;20.50;60.70
17182;DHT22;8706;48.254;16.422;2024-03-08T14:31:37;20.50;60.80
17182;DHT22;8706;48.254;16.422;2024-03-08T14:34:07;20.40;60.80
17182;DHT22;8706;48.254;16.422;2024-03-08T14:36:34;20.40;61.00
17182;DHT22;8706;48.254;16.422;2024-03-08T14:39:01;20.40;61.00
17182;DHT22;8706;48.254;16.422;2024-03-08T14:41:28;20.30;61.10
17182;DHT22;8706;48.254;16.422;2024-03-08T14:43:55;20.30;61.30
17182;DHT22;8706;48.254;16.422;2024-03-08T14:46:22;20.30;61.70
17182;DHT22;8706;48.254;16.422;2024-03-08T14:48:50;20.40;61.00
17182;DHT22;8706;48.254;16.422;2024-03-08T14:51:19;20.30;61.20
17182;DHT22;8706;48.254;16.422;2024-03-08T14:53:48;20.20;61.30
17182;DHT22;8706;48.254;16.422;2024-03-08T14:56:15;20.20;61.30
17182;DHT22;8706;48.254;16.422;2024-03-08T14:58:43;20.30;61.20
17182;DHT22;8706;48.254;16.422;2024-03-08T15:01:10;20.30;61.30
17182;DHT22;8706;48.254;16.422;2024-03-08T15:03:39;20.20;61.30
17182;DHT22;8706;48.254;16.422;2024-03-08T15:06:06;20.30;61.30
17182;DHT22;8706;48.254;16.422;2024-03-08T15:08:36;20.30;61.20
17182;DHT22;8706;48.254;16.422;2024-03-08T15:11:04;20.20;61.40
17182;DHT22;8706;48.254;16.422;2024-03-08T15:13:31;20.10;61.40
17182;DHT22;8706;48.254;16.422;2024-03-08T15:16:07;20.00;62.40
17182;DHT22;8706;48.254;16.422;2024-03-08T15:18:35;20.00;61.70
17182;DHT22;8706;48.254;16.422;2024-03-08T15:21:04;20.00;61.80
17182;DHT22;8706;48.254;16.422;2024-03-08T15:23:33;20.00;61.80
17182;DHT22;8706;48.254;16.422;2024-03-08T15:26:02;19.90;61.80
17182;DHT22;8706;48.254;16.422;2024-03-08T15:28:32;19.90;61.80
17182;DHT22;8706;48.254;16.422;2024-03-08T15:31:03;19.90;61.80
17182;DHT22;8706;48.254;16.422;2024-03-08T15:33:33;19.90;61.90
17182;DHT22;8706;48.254;16.422;2024-03-08T15:36:05;19.90;61.90